Langdon, Kansas
Current Conditions -  °F | °C
As of 2:35 AM on Friday 28 Nov 2014 (Local Time) from KPTT Reporting Station
Clear Clear  
Wind Chill: -3°   Ceiling: Unl
Heat Index:   Visibility: 10mi
Dew Point: -3°   Wind: 10mph
Humidity: 75%   Direction: 200°SSW
Pressure: 30.05"   Gusts: NA
Location:  37.8171°N, 98.3602°W
Report Text: KPTT 280835Z AUTO 20009KT 10SM CLR 01/M03 A3005 RMK AO2
Loading
Personal Weather Stations






























Interactive Weather Map New forecast layout! Learn more

10-Day Weather Forecast

Advertisements
Track Severe Weather on mobile